Terminal Aerodrome Forecast
Issued by NWS Shreveport, LA

Home | Current Version | Previous Version | Text Only | Print | Product List | Glossary On
Versions: 1 2 3 4 5 6 7 8 9 10 11 12 13 14 15 16 17 18
000
FTUS44 KSHV 301141
TAFELD
TAF
KELD 301141Z 3012/0112 24007KT P6SM SCT012 OVC060
      TEMPO 3013/3016 -RA BKN015
     FM301600 23010KT P6SM VCSH SCT015 BKN070
     FM301800 23012G19KT P6SM SCT025 BKN080
     FM302000 23013G20KT P6SM SCT110
     FM010000 20007KT P6SM SCT045
     FM010600 22009KT P6SM SKC=

USA.gov is the U.S. government's official web portal to all federal, state and local government web resources and services.